createdAt,value
2023-11-30T00:00:46.658Z,14.10
2023-11-30T00:03:13.297Z,12.98
2023-11-30T00:05:39.849Z,15.02
2023-11-30T00:08:06.451Z,13.30
2023-11-30T00:10:33.044Z,14.60
2023-11-30T00:12:59.639Z,14.30
2023-11-30T00:15:26.263Z,14.10
2023-11-30T00:17:52.914Z,13.30
2023-11-30T00:20:19.567Z,13.82
2023-11-30T00:22:47.943Z,12.13
2023-11-30T00:25:14.557Z,13.05
2023-11-30T00:27:41.335Z,14.05
2023-11-30T00:30:08.268Z,13.00
2023-11-30T00:32:36.806Z,11.07
2023-11-30T00:35:03.763Z,12.35
2023-11-30T00:37:30.836Z,14.38
2023-11-30T00:39:57.363Z,13.68
2023-11-30T00:42:24.131Z,14.20
2023-11-30T00:44:50.773Z,12.23
2023-11-30T00:47:17.414Z,13.13
2023-11-30T00:49:44.038Z,11.18
2023-11-30T00:52:10.654Z,12.93
2023-11-30T00:54:37.175Z,14.77
2023-11-30T00:57:04.922Z,13.30
2023-11-30T00:59:31.682Z,14.73
2023-11-30T01:01:58.612Z,13.52
2023-11-30T01:04:25.374Z,13.25
2023-11-30T01:06:52.159Z,12.23
2023-11-30T01:09:19.133Z,13.55
2023-11-30T01:11:45.755Z,12.50
2023-11-30T01:14:12.516Z,11.77
2023-11-30T01:16:40.331Z,10.88
2023-11-30T01:19:07.303Z,12.45
2023-11-30T01:21:34.035Z,12.02
2023-11-30T01:24:00.715Z,11.60
2023-11-30T01:26:27.396Z,12.05
2023-11-30T01:28:54.110Z,10.25
2023-11-30T01:31:20.738Z,11.30
2023-11-30T01:33:47.350Z,11.10
2023-11-30T01:36:14.914Z,12.00
2023-11-30T01:38:41.895Z,12.02
2023-11-30T01:41:08.931Z,11.35
2023-11-30T01:43:35.726Z,11.32
2023-11-30T01:46:04.141Z,11.60
2023-11-30T01:48:32.085Z,10.90
2023-11-30T01:50:59.155Z,11.52
2023-11-30T01:53:29.964Z,11.07
2023-11-30T01:55:57.877Z,12.27
2023-11-30T01:58:24.445Z,10.68
2023-11-30T02:00:51.413Z,11.15
2023-11-30T02:03:18.403Z,11.40
2023-11-30T02:05:46.030Z,10.93
2023-11-30T02:08:12.630Z,11.75
2023-11-30T02:10:39.424Z,11.60
2023-11-30T02:13:06.004Z,11.75
2023-11-30T02:15:32.583Z,11.70
2023-11-30T02:17:59.569Z,12.25
2023-11-30T02:20:26.430Z,11.50
2023-11-30T02:22:53.319Z,11.73
2023-11-30T02:25:19.905Z,12.18
2023-11-30T02:27:46.798Z,9.88
2023-11-30T02:30:13.669Z,12.35
2023-11-30T02:32:40.281Z,12.88
2023-11-30T02:35:07.205Z,12.23
2023-11-30T02:37:34.939Z,11.30
2023-11-30T02:40:02.094Z,12.75
2023-11-30T02:42:28.741Z,12.52
2023-11-30T02:44:55.469Z,12.93
2023-11-30T02:47:22.072Z,11.73
2023-11-30T02:49:48.627Z,11.52
2023-11-30T02:52:15.265Z,12.18
2023-11-30T02:54:42.087Z,12.10
2023-11-30T02:57:08.792Z,11.45
2023-11-30T02:59:35.507Z,12.63
2023-11-30T03:02:02.461Z,12.82
2023-11-30T03:04:29.167Z,12.90
2023-11-30T03:06:55.778Z,13.60
2023-11-30T03:09:22.842Z,12.30
2023-11-30T03:11:49.544Z,13.15
2023-11-30T03:14:16.115Z,12.95
2023-11-30T03:16:43.875Z,13.85
2023-11-30T03:19:16.766Z,11.80
2023-11-30T03:21:44.493Z,12.05
2023-11-30T03:24:11.308Z,12.32
2023-11-30T03:26:37.973Z,12.95
2023-11-30T03:29:05.759Z,11.57
2023-11-30T03:31:32.801Z,11.32
2023-11-30T03:33:59.441Z,11.50
2023-11-30T03:36:26.326Z,11.77
2023-11-30T03:38:56.877Z,11.50
2023-11-30T03:41:24.015Z,10.13
2023-11-30T03:43:50.537Z,13.00
2023-11-30T03:46:17.271Z,11.70
2023-11-30T03:48:43.934Z,12.50
2023-11-30T03:51:10.985Z,11.55
2023-11-30T03:53:37.728Z,10.88
2023-11-30T03:56:04.529Z,11.70
2023-11-30T03:58:31.109Z,11.45
2023-11-30T04:00:57.694Z,12.38
2023-11-30T04:03:24.345Z,11.68
2023-11-30T04:05:51.142Z,10.65
2023-11-30T04:08:18.440Z,12.13
2023-11-30T04:10:45.349Z,11.52
2023-11-30T04:13:12.516Z,11.98
2023-11-30T04:15:39.110Z,12.32
2023-11-30T04:18:05.876Z,12.00
2023-11-30T04:20:32.506Z,11.70
2023-11-30T04:22:59.046Z,11.70
2023-11-30T04:25:25.989Z,11.73
2023-11-30T04:27:52.707Z,11.73
2023-11-30T04:30:19.644Z,11.85
2023-11-30T04:32:46.393Z,11.45
2023-11-30T04:35:13.056Z,11.85
2023-11-30T04:37:39.597Z,11.88
2023-11-30T04:40:07.557Z,12.05
2023-11-30T04:42:34.255Z,10.43
2023-11-30T04:45:00.956Z,13.43
2023-11-30T04:47:27.790Z,11.95
2023-11-30T04:49:54.461Z,12.50
2023-11-30T04:52:21.179Z,12.27
2023-11-30T04:54:47.748Z,11.80
2023-11-30T04:57:15.425Z,11.70
2023-11-30T04:59:42.115Z,12.45
2023-11-30T05:02:09.241Z,13.25
2023-11-30T05:04:36.020Z,13.43
2023-11-30T05:07:02.710Z,12.45
2023-11-30T05:09:29.270Z,13.82
2023-11-30T05:11:55.906Z,12.85
2023-11-30T05:14:22.549Z,13.13
2023-11-30T05:16:49.223Z,12.82
2023-11-30T05:19:15.993Z,14.48
2023-11-30T05:21:42.556Z,15.98
2023-11-30T05:24:09.169Z,14.55
2023-11-30T05:26:35.894Z,13.65
2023-11-30T05:29:02.464Z,13.70
2023-11-30T05:31:28.999Z,14.48
2023-11-30T05:33:55.713Z,14.90
2023-11-30T05:36:23.034Z,15.18
2023-11-30T05:38:49.953Z,15.18
2023-11-30T05:41:17.863Z,13.57
2023-11-30T05:43:44.450Z,15.43
2023-11-30T05:46:11.391Z,16.13
2023-11-30T05:48:38.180Z,17.35
2023-11-30T05:51:04.890Z,15.35
2023-11-30T05:53:31.655Z,15.63
2023-11-30T05:55:58.437Z,16.10
2023-11-30T05:58:25.039Z,14.90
2023-11-30T06:00:51.791Z,16.38
2023-11-30T06:03:19.944Z,16.80
2023-11-30T06:05:46.650Z,14.98
2023-11-30T06:08:13.204Z,14.50
2023-11-30T06:10:39.860Z,16.70
2023-11-30T06:13:08.823Z,15.98
2023-11-30T06:15:35.782Z,17.10
2023-11-30T06:18:02.492Z,18.08
2023-11-30T06:20:29.192Z,16.40
2023-11-30T06:22:55.772Z,16.52
2023-11-30T06:25:22.520Z,16.67
2023-11-30T06:27:49.092Z,15.65
2023-11-30T06:30:16.073Z,15.43
2023-11-30T06:32:42.806Z,15.77
2023-11-30T06:35:09.842Z,16.00
2023-11-30T06:37:36.500Z,15.85
2023-11-30T06:40:03.193Z,17.00
2023-11-30T06:42:29.939Z,14.55
2023-11-30T06:44:56.496Z,17.33
2023-11-30T06:47:23.151Z,17.42
2023-11-30T06:49:49.851Z,17.08
2023-11-30T06:52:17.056Z,16.13
2023-11-30T06:54:43.602Z,19.30
2023-11-30T06:57:11.159Z,17.73
2023-11-30T06:59:37.979Z,15.60
2023-11-30T07:02:04.971Z,16.50
2023-11-30T07:04:31.588Z,15.52
2023-11-30T07:06:58.331Z,15.25
2023-11-30T07:09:24.961Z,15.63
2023-11-30T07:11:51.444Z,17.33
2023-11-30T07:14:18.185Z,15.63
2023-11-30T07:16:44.900Z,15.93
2023-11-30T07:19:11.479Z,16.65
2023-11-30T07:21:38.473Z,15.75
2023-11-30T07:24:05.667Z,15.93
2023-11-30T07:26:32.205Z,17.02
2023-11-30T07:28:58.790Z,15.80
2023-11-30T07:31:25.896Z,15.48
2023-11-30T07:33:52.607Z,17.73
2023-11-30T07:36:19.393Z,15.55
2023-11-30T07:38:46.142Z,15.60
2023-11-30T07:41:13.389Z,15.85
2023-11-30T07:43:39.991Z,15.98
2023-11-30T07:46:06.841Z,14.82
2023-11-30T07:48:33.997Z,15.15
2023-11-30T07:51:00.685Z,17.85
2023-11-30T07:53:27.302Z,15.95
2023-11-30T07:55:57.760Z,14.85
2023-11-30T07:58:24.877Z,18.63
2023-11-30T08:00:52.279Z,17.02
2023-11-30T08:03:18.992Z,16.77
2023-11-30T08:05:45.965Z,19.30
2023-11-30T08:08:13.190Z,19.13
2023-11-30T08:10:40.482Z,16.67
2023-11-30T08:13:07.207Z,18.90
2023-11-30T08:15:34.302Z,20.58
2023-11-30T08:18:02.312Z,19.35
2023-11-30T08:20:29.009Z,19.67
2023-11-30T08:22:56.167Z,19.25
2023-11-30T08:25:22.636Z,19.38
2023-11-30T08:27:54.076Z,19.27
2023-11-30T08:30:21.775Z,19.15
2023-11-30T08:32:48.428Z,19.85
2023-11-30T08:35:15.101Z,17.55
2023-11-30T08:37:41.937Z,18.65
2023-11-30T08:40:09.419Z,19.90
2023-11-30T08:42:36.797Z,18.30
2023-11-30T08:45:04.131Z,16.88
2023-11-30T08:47:30.822Z,18.50
2023-11-30T08:49:57.473Z,16.90
2023-11-30T08:52:24.488Z,18.25
2023-11-30T08:54:52.577Z,18.02
2023-11-30T08:57:20.066Z,18.33
2023-11-30T08:59:47.435Z,17.70
2023-11-30T09:02:14.646Z,17.25
2023-11-30T09:04:41.728Z,19.00
2023-11-30T09:07:08.698Z,19.00
2023-11-30T09:09:35.943Z,18.45
2023-11-30T09:12:03.580Z,17.70
2023-11-30T09:14:33.426Z,18.45
2023-11-30T09:17:03.090Z,19.85
2023-11-30T09:19:29.674Z,18.67
2023-11-30T09:21:56.395Z,19.27
2023-11-30T09:24:23.663Z,20.95
2023-11-30T09:26:52.313Z,20.95
2023-11-30T09:29:18.979Z,22.25
2023-11-30T09:31:46.240Z,20.95
2023-11-30T09:34:13.138Z,24.80
2023-11-30T09:36:40.839Z,24.00
2023-11-30T09:39:10.855Z,24.15
2023-11-30T09:41:40.227Z,25.08
2023-11-30T09:44:07.372Z,25.65
2023-11-30T09:46:34.283Z,27.30
2023-11-30T09:49:01.301Z,24.17
2023-11-30T09:51:31.575Z,27.60
2023-11-30T09:53:58.817Z,23.17
2023-11-30T09:56:27.406Z,23.88
2023-11-30T09:58:54.561Z,26.50
2023-11-30T10:01:21.531Z,24.20
2023-11-30T10:03:48.252Z,21.70
2023-11-30T10:06:15.708Z,17.30
2023-11-30T10:08:42.843Z,25.05
2023-11-30T10:11:10.099Z,25.13
2023-11-30T10:13:37.165Z,28.48
2023-11-30T10:16:06.402Z,26.42
2023-11-30T10:18:34.571Z,26.02
2023-11-30T10:21:01.977Z,29.75
2023-11-30T10:23:28.661Z,27.33
2023-11-30T10:25:56.739Z,26.42
2023-11-30T10:28:23.912Z,25.15
2023-11-30T10:30:57.146Z,34.72
2023-11-30T10:33:24.916Z,29.52
2023-11-30T10:35:52.982Z,25.05
2023-11-30T10:38:22.583Z,32.25
2023-11-30T10:40:50.816Z,23.38
2023-11-30T10:43:18.084Z,22.05
2023-11-30T10:45:46.296Z,27.45
2023-11-30T10:48:13.556Z,31.08
2023-11-30T10:50:41.817Z,27.98
2023-11-30T10:53:14.367Z,23.27
2023-11-30T10:55:41.455Z,26.05
2023-11-30T10:58:08.326Z,26.55
2023-11-30T11:00:35.575Z,27.85
2023-11-30T11:03:08.134Z,24.23
2023-11-30T11:05:36.209Z,25.88
2023-11-30T11:08:03.478Z,23.80
2023-11-30T11:10:32.871Z,26.02
2023-11-30T11:13:00.268Z,26.13
2023-11-30T11:15:31.290Z,33.55
2023-11-30T11:18:04.122Z,22.27
2023-11-30T11:20:31.711Z,27.75
2023-11-30T11:23:10.798Z,25.98
2023-11-30T11:25:40.187Z,28.27
2023-11-30T11:28:07.439Z,31.90
2023-11-30T11:30:38.331Z,31.67
2023-11-30T11:33:06.153Z,28.48
2023-11-30T11:35:32.920Z,31.83
2023-11-30T11:38:00.254Z,26.88
2023-11-30T11:40:27.636Z,25.15
2023-11-30T11:42:54.725Z,26.42
2023-11-30T11:45:22.493Z,24.52
2023-11-30T11:47:49.490Z,23.63
2023-11-30T11:50:16.150Z,24.75
2023-11-30T11:52:42.702Z,22.73
2023-11-30T11:55:11.208Z,23.92
2023-11-30T11:57:38.906Z,22.60
2023-11-30T12:00:06.817Z,23.90
2023-11-30T12:02:35.144Z,22.65
2023-11-30T12:05:08.180Z,22.95
2023-11-30T12:07:35.032Z,21.23
2023-11-30T12:10:02.116Z,21.15
2023-11-30T12:12:32.823Z,20.27
2023-11-30T12:14:59.613Z,21.58
2023-11-30T12:17:26.290Z,21.45
2023-11-30T12:19:52.894Z,20.92
2023-11-30T12:22:19.530Z,20.15
2023-11-30T12:24:46.093Z,21.20
2023-11-30T12:27:12.944Z,21.30
2023-11-30T12:29:39.538Z,22.85
2023-11-30T12:32:06.434Z,21.58
2023-11-30T12:34:33.475Z,21.80
2023-11-30T12:37:00.251Z,23.92
2023-11-30T12:39:27.024Z,23.50
2023-11-30T12:41:54.186Z,22.13
2023-11-30T12:44:21.615Z,21.73
2023-11-30T12:46:48.321Z,23.20
2023-11-30T12:49:15.115Z,23.88
2023-11-30T12:51:41.725Z,21.27
2023-11-30T12:54:09.001Z,21.83
2023-11-30T12:56:35.728Z,20.80
2023-11-30T12:59:02.445Z,21.27
2023-11-30T13:01:29.219Z,22.20
2023-11-30T13:03:55.916Z,21.40
2023-11-30T13:06:22.662Z,23.15
2023-11-30T13:08:49.297Z,21.25
2023-11-30T13:11:15.967Z,20.20
2023-11-30T13:13:47.269Z,19.90
2023-11-30T13:16:14.548Z,21.15
2023-11-30T13:18:41.225Z,21.45
2023-11-30T13:21:07.924Z,21.05
2023-11-30T13:23:34.438Z,21.92
2023-11-30T13:26:01.010Z,22.20
2023-11-30T13:28:35.409Z,21.35
2023-11-30T13:31:07.682Z,21.45
2023-11-30T13:33:34.549Z,22.05
2023-11-30T13:36:01.180Z,22.77
2023-11-30T13:38:27.654Z,21.45
2023-11-30T13:40:54.333Z,21.95
2023-11-30T13:43:21.169Z,21.52
2023-11-30T13:45:47.970Z,21.83
2023-11-30T13:48:15.944Z,22.30
2023-11-30T13:50:52.507Z,22.52
2023-11-30T13:53:23.037Z,20.33
2023-11-30T13:55:49.605Z,21.95
2023-11-30T13:58:16.423Z,21.73
2023-11-30T14:00:43.808Z,22.60
2023-11-30T14:03:10.626Z,21.23
2023-11-30T14:05:37.570Z,20.95
2023-11-30T14:08:04.306Z,22.45
2023-11-30T14:10:31.147Z,22.88
2023-11-30T14:12:58.132Z,21.30
2023-11-30T14:15:24.719Z,22.55
2023-11-30T14:17:51.462Z,19.90
2023-11-30T14:20:18.412Z,20.77
2023-11-30T14:22:45.965Z,19.95
2023-11-30T14:25:13.855Z,21.73
2023-11-30T14:27:40.616Z,20.95
2023-11-30T14:30:10.853Z,21.55
2023-11-30T14:32:40.141Z,21.10
2023-11-30T14:35:07.317Z,21.05
2023-11-30T14:37:33.847Z,20.25
2023-11-30T14:40:00.495Z,21.40
2023-11-30T14:42:27.079Z,20.02
2023-11-30T14:44:53.752Z,18.38
2023-11-30T14:47:26.399Z,19.92
2023-11-30T14:49:53.764Z,19.25
2023-11-30T14:52:20.433Z,21.75
2023-11-30T14:54:53.344Z,19.80
2023-11-30T14:57:20.887Z,20.08
2023-11-30T14:59:48.215Z,20.27
2023-11-30T15:02:15.177Z,20.42
2023-11-30T15:04:41.983Z,18.88
2023-11-30T15:07:09.006Z,20.08
2023-11-30T15:09:35.857Z,20.05
2023-11-30T15:12:02.647Z,25.85
2023-11-30T15:14:29.342Z,21.00
2023-11-30T15:16:55.999Z,17.38
2023-11-30T15:19:23.509Z,18.85
2023-11-30T15:21:50.217Z,17.27
2023-11-30T15:24:17.132Z,18.95
2023-11-30T15:26:44.039Z,18.13
2023-11-30T15:29:11.215Z,18.13
2023-11-30T15:31:37.854Z,17.80
2023-11-30T15:34:04.572Z,17.88
2023-11-30T15:36:31.304Z,18.20
2023-11-30T15:39:08.993Z,18.17
2023-11-30T15:41:40.888Z,18.15
2023-11-30T15:44:07.656Z,17.27
2023-11-30T15:46:35.585Z,17.73
2023-11-30T15:49:02.461Z,16.90
2023-11-30T15:51:29.126Z,16.25
2023-11-30T15:53:55.765Z,17.08
2023-11-30T15:56:22.856Z,16.30
2023-11-30T15:58:49.877Z,16.38
2023-11-30T16:01:16.475Z,15.73
2023-11-30T16:03:43.409Z,18.35
2023-11-30T16:06:11.410Z,18.90
2023-11-30T16:08:38.338Z,17.77
2023-11-30T16:11:05.202Z,16.63
2023-11-30T16:13:31.739Z,16.77
2023-11-30T16:15:58.429Z,16.00
2023-11-30T16:18:25.581Z,16.42
2023-11-30T16:20:52.247Z,17.27
2023-11-30T16:23:18.832Z,17.13
2023-11-30T16:25:45.492Z,17.88
2023-11-30T16:28:12.277Z,16.52
2023-11-30T16:30:38.990Z,16.13
2023-11-30T16:33:06.077Z,17.50
2023-11-30T16:35:32.698Z,16.48
2023-11-30T16:37:59.522Z,15.05
2023-11-30T16:40:26.343Z,16.70
2023-11-30T16:42:53.127Z,16.48
2023-11-30T16:45:19.729Z,19.38
2023-11-30T16:47:46.310Z,17.40
2023-11-30T16:50:15.798Z,16.63
2023-11-30T16:52:43.368Z,15.88
2023-11-30T16:55:10.208Z,16.27
2023-11-30T16:57:37.108Z,16.02
2023-11-30T17:00:07.358Z,16.88
2023-11-30T17:02:34.368Z,17.17
2023-11-30T17:05:01.070Z,15.75
2023-11-30T17:07:27.726Z,14.15
2023-11-30T17:09:54.370Z,15.88
2023-11-30T17:12:22.767Z,16.48
2023-11-30T17:14:49.431Z,16.15
2023-11-30T17:17:16.026Z,17.38
2023-11-30T17:19:42.684Z,16.80
2023-11-30T17:22:09.442Z,16.45
2023-11-30T17:24:36.189Z,17.23
2023-11-30T17:27:04.065Z,16.33
2023-11-30T17:29:30.652Z,16.90
2023-11-30T17:31:58.037Z,17.20
2023-11-30T17:34:24.980Z,17.23
2023-11-30T17:36:52.194Z,17.83
2023-11-30T17:39:19.068Z,17.70
2023-11-30T17:41:45.763Z,17.25
2023-11-30T17:44:12.466Z,16.75
2023-11-30T17:46:39.783Z,18.25
2023-11-30T17:49:06.821Z,19.00
2023-11-30T17:51:33.849Z,18.80
2023-11-30T17:54:00.715Z,19.30
2023-11-30T17:56:27.434Z,19.65
2023-11-30T17:58:54.152Z,18.75
2023-11-30T18:01:20.835Z,17.30
2023-11-30T18:03:47.763Z,19.58
2023-11-30T18:06:14.462Z,17.92
2023-11-30T18:08:41.047Z,20.75
2023-11-30T18:11:08.024Z,20.60
2023-11-30T18:13:34.805Z,19.73
2023-11-30T18:16:03.999Z,19.70
2023-11-30T18:18:49.892Z,21.10
2023-11-30T18:21:16.459Z,20.42
2023-11-30T18:23:43.109Z,20.75
2023-11-30T18:26:09.680Z,19.25
2023-11-30T18:28:36.399Z,21.92
2023-11-30T18:31:12.233Z,24.30
2023-11-30T18:33:46.878Z,19.48
2023-11-30T18:36:13.505Z,21.63
2023-11-30T18:38:47.709Z,22.10
2023-11-30T18:41:17.757Z,22.58
2023-11-30T18:43:44.451Z,23.52
2023-11-30T18:46:11.064Z,22.20
2023-11-30T18:48:37.911Z,23.88
2023-11-30T18:51:05.514Z,22.83
2023-11-30T18:53:32.388Z,22.25
2023-11-30T18:55:59.592Z,38.20
2023-11-30T18:58:26.140Z,27.50
2023-11-30T19:00:52.992Z,29.08
2023-11-30T19:03:19.852Z,23.95
2023-11-30T19:05:46.474Z,26.20
2023-11-30T19:08:14.874Z,31.90
2023-11-30T19:10:41.669Z,25.42
2023-11-30T19:13:08.335Z,24.65
2023-11-30T19:15:42.508Z,29.30
2023-11-30T19:18:09.211Z,30.17
2023-11-30T19:20:37.918Z,24.42
2023-11-30T19:23:04.638Z,25.27
2023-11-30T19:25:31.183Z,35.35
2023-11-30T19:27:58.111Z,29.33
2023-11-30T19:30:25.331Z,35.67
2023-11-30T19:32:52.763Z,28.58
2023-11-30T19:35:19.878Z,20.85
2023-11-30T19:37:46.714Z,24.77
2023-11-30T19:40:13.504Z,25.40
2023-11-30T19:42:40.536Z,29.98
2023-11-30T19:45:07.702Z,27.90
2023-11-30T19:47:34.929Z,28.55
2023-11-30T19:50:01.919Z,27.80
2023-11-30T19:52:29.242Z,22.80
2023-11-30T19:54:56.062Z,26.70
2023-11-30T19:57:25.711Z,22.13
2023-11-30T19:59:52.404Z,20.75
2023-11-30T20:02:19.132Z,17.50
2023-11-30T20:04:45.976Z,21.30
2023-11-30T20:07:12.628Z,22.70
2023-11-30T20:09:39.859Z,21.42
2023-11-30T20:12:06.844Z,24.67
2023-11-30T20:14:33.444Z,24.20
2023-11-30T20:17:00.761Z,25.73
2023-11-30T20:19:27.296Z,26.95
2023-11-30T20:21:53.989Z,21.88
2023-11-30T20:24:20.730Z,23.85
2023-11-30T20:26:48.630Z,20.60
2023-11-30T20:29:16.584Z,27.73
2023-11-30T20:31:43.369Z,27.88
2023-11-30T20:34:10.195Z,28.88
2023-11-30T20:36:36.818Z,28.92
2023-11-30T20:39:03.976Z,21.50
2023-11-30T20:41:30.567Z,27.35
2023-11-30T20:43:57.261Z,24.45
2023-11-30T20:46:24.541Z,22.70
2023-11-30T20:48:51.282Z,26.35
2023-11-30T20:51:18.479Z,23.92
2023-11-30T20:53:45.596Z,25.00
2023-11-30T20:56:12.361Z,26.58
2023-11-30T20:58:39.801Z,27.58
2023-11-30T21:01:06.814Z,26.85
2023-11-30T21:03:33.883Z,25.67
2023-11-30T21:06:02.070Z,27.38
2023-11-30T21:08:29.592Z,25.25
2023-11-30T21:10:56.101Z,23.80
2023-11-30T21:13:22.818Z,26.13
2023-11-30T21:15:49.509Z,24.98
2023-11-30T21:18:16.243Z,23.75
2023-11-30T21:20:42.964Z,24.17
2023-11-30T21:23:09.742Z,24.38
2023-11-30T21:25:36.492Z,23.90
2023-11-30T21:28:03.289Z,25.75
2023-11-30T21:30:30.220Z,26.10
2023-11-30T21:32:56.881Z,23.27
2023-11-30T21:35:23.518Z,25.15
2023-11-30T21:37:50.061Z,23.08
2023-11-30T21:40:16.821Z,23.83
2023-11-30T21:42:43.457Z,22.38
2023-11-30T21:45:10.353Z,21.65
2023-11-30T21:47:37.270Z,23.73
2023-11-30T21:50:17.547Z,22.85
2023-11-30T21:52:45.459Z,23.25
2023-11-30T21:55:12.376Z,22.73
2023-11-30T21:57:42.654Z,22.60
2023-11-30T22:00:12.207Z,23.67
2023-11-30T22:02:39.332Z,22.42
2023-11-30T22:05:06.466Z,23.50
2023-11-30T22:07:33.911Z,22.88
2023-11-30T22:10:00.518Z,23.63
2023-11-30T22:12:27.121Z,24.23
2023-11-30T22:14:54.025Z,22.25
2023-11-30T22:17:20.548Z,15.68
2023-11-30T22:19:47.463Z,16.23
2023-11-30T22:22:15.586Z,16.92
2023-11-30T22:24:42.559Z,15.50
2023-11-30T22:27:09.221Z,17.48
2023-11-30T22:29:36.016Z,17.23
2023-11-30T22:32:02.621Z,16.23
2023-11-30T22:34:29.203Z,15.93
2023-11-30T22:36:56.335Z,17.85
2023-11-30T22:39:23.263Z,17.30
2023-11-30T22:41:53.160Z,17.67
2023-11-30T22:44:19.892Z,18.38
2023-11-30T22:46:46.951Z,17.38
2023-11-30T22:49:15.900Z,17.42
2023-11-30T22:51:43.272Z,18.00
2023-11-30T22:54:09.898Z,17.20
2023-11-30T22:56:36.802Z,16.17
2023-11-30T22:59:03.583Z,18.27
2023-11-30T23:01:31.530Z,15.70
2023-11-30T23:03:58.509Z,15.98
2023-11-30T23:06:25.698Z,16.55
2023-11-30T23:08:52.705Z,16.42
2023-11-30T23:11:19.308Z,16.15
2023-11-30T23:13:45.918Z,16.90
2023-11-30T23:16:12.852Z,18.05
2023-11-30T23:18:39.531Z,17.80
2023-11-30T23:21:06.420Z,15.65
2023-11-30T23:23:33.093Z,16.88
2023-11-30T23:26:01.081Z,16.58
2023-11-30T23:28:27.831Z,16.25
2023-11-30T23:30:54.542Z,16.73
2023-11-30T23:33:21.467Z,16.13
2023-11-30T23:35:48.465Z,15.65
2023-11-30T23:38:14.994Z,15.30
2023-11-30T23:40:41.573Z,15.48
2023-11-30T23:43:08.320Z,14.35
2023-11-30T23:45:34.935Z,15.80
2023-11-30T23:48:01.532Z,14.32
2023-11-30T23:50:28.276Z,15.90
2023-11-30T23:52:54.827Z,15.20
2023-11-30T23:55:21.377Z,14.60
2023-11-30T23:57:47.983Z,14.90
